ADDS METAR Data INFO
IDs: Format: Raw Decoded Include TAF

Data at: 0100 UTC 22 Oct 2017

PAGY 220053Z AUTO 02008KT 10SM OVC090 08/M04 A2914 RMK AO2 SLP868 T00831039 TSNO
PAGY 212353Z AUTO 03008KT 10SM BKN120 08/M03 A2915 RMK AO2 SLP870 T00831033 10083 20033 56025 TSNO
PAGY 212253Z AUTO 02010G20KT 10SM BKN120 08/M04 A2917 RMK AO2 SLP877 T00831039 TSNO
PAGY 212153Z AUTO 02010KT 10SM CLR 08/M03 A2919 RMK AO2 SLP884 T00831028 TSNO
PAGY 212053Z AUTO 04011G22KT 10SM CLR 08/M02 A2922 RMK AO2 SLP895 T00831017 58041 TSNO
PAGY 211953Z AUTO 00000KT 10SM CLR 06/01 A2928 RMK AO2 SLP916 T00560011 TSNO
PAGY 211853Z AUTO 05003KT 10SM BKN080 04/02 A2932 RMK AO2 SLP930 T00390017 TSNO
PAGY 211753Z AUTO 00000KT 10SM CLR 03/02 A2934 RMK AO2 SLP935 60002 T00330022 10033 20028 58020 TSNO
PAGY 211653Z AUTO 05004KT 10SM BKN080 03/02 A2936 RMK AO2 SLP942 T00280017 TSNO
PAGY 211553Z AUTO 00000KT 10SM OVC070 03/02 A2938 RMK AO2 SLP950 T00280022 TSNO
PAGY 211453Z AUTO 00000KT 10SM OVC070 03/02 A2940 RMK AO2 RAB12E21 SLP955 P0000 60002 T00280022 58010 TSNO
PAGY 211353Z AUTO 00000KT 10SM FEW029 BKN055 OVC065 03/02 A2942 RMK AO2 RAE11UPB11E17 SLP962 P0000 T00330017 TSNO
PAGY 211349Z AUTO 00000KT 10SM FEW029 SCT046 OVC065 03/02 A2942 RMK AO2 RAE11UPB11E17 P0000 TSNO
PAGY 211253Z AUTO 00000KT 8SM -RA OVC020 03/02 A2943 RMK AO2 UPE1154B22E24RAB1154E22B40 SLP966 P0002 T00330022 TSNO
PAGY 211153Z AUTO 03004KT 10SM UP OVC024 03/02 A2944 RMK AO2 RAE11UPB11E15B42 SLP970 P0000 60003 70006 T00280017 10061 20028 58001 TSNO
PAGY 211134Z AUTO 07007KT 10SM BKN024 OVC060 03/02 A2944 RMK AO2 RAE11UPB11E15 P0000 T00280017 TSNO
PAGY 211053Z AUTO 05010KT 10SM -RA FEW015 SCT023 OVC032 03/01 A2945 RMK AO2 RAB18 SLP971 P0002 T00330011 TSNO
PAGY 211012Z AUTO 00000KT 10SM BKN028 BKN033 OVC055 04/02 A2945 RMK AO2 T00390022 TSNO
PAGY 210953Z AUTO 05008KT 10SM SCT032 SCT045 OVC060 04/02 A2944 RMK AO2 RAB09E35 SLP970 P0000 T00390017 TSNO
PAGY 210853Z AUTO 17005KT 10SM FEW030 BKN060 BKN080 04/01 A2944 RMK AO2 RAB09E42 SLP971 P0001 60001 T00440011 400720033 53005 TSNO
PAGY 210753Z AUTO 19013G20KT 10SM SCT065 OVC080 06/01 A2943 RMK AO2 SLP967 T00610006 TSNO
PAGY 210653Z AUTO 21015G20KT 10SM OVC060 06/01 A2942 RMK AO2 SLP964 T00610006 TSNO
PAGY 210553Z AUTO 19005KT 10SM BKN060 06/01 A2943 RMK AO2 SLP965 T00560011 10067 20039 51014 TSNO
PAGY 210453Z AUTO 20007KT 10SM BKN070 06/01 A2942 RMK AO2 SLP962 T00560006 TSNO
PAGY 210353Z AUTO 00000KT 10SM BKN060 06/01 A2941 RMK AO2 SLP958 T00560011 TSNO
PAGY 210253Z AUTO 20011G17KT 10SM CLR 06/01 A2939 RMK AO2 SLP952 T00560006 53018 TSNO
PAGY 210153Z AUTO 21016KT 10SM FEW049 FEW095 BKN120 06/02 A2936 RMK AO2 PK WND 21028/0114 SLP942 T00610017 TSNO
PAGY 210053Z AUTO 20017G26KT 10SM FEW060 BKN080 BKN100 07/02 A2935 RMK AO2 PK WND 20026/0051 SLP940 T00670022 TSNO
PAGY 202353Z AUTO 20017G22KT 10SM SCT060 BKN080 OVC095 07/02 A2934 RMK AO2 PK WND 20026/2320 SLP934 T00670022 10072 20039 53013 TSNO
PAGY 202253Z AUTO 21023KT 10SM FEW028 SCT048 BKN090 07/02 A2932 RMK AO2 PK WND 21030/2206 SLP928 T00670022 TSNO
PAGY 202153Z AUTO 21020G28KT 10SM FEW047 BKN055 OVC080 07/03 A2931 RMK AO2 PK WND 21028/2144 SLP924 T00720028 TSNO
PAGY 202053Z AUTO 20010KT 10SM BKN110 07/02 A2930 RMK AO2 SLP922 T00720022 51012 TSNO
PAGY 201953Z AUTO VRB03KT 10SM SCT055 BKN070 OVC110 07/03 A2930 RMK AO2 SLP922 T00670033 TSNO
PAGY 201853Z AUTO 00000KT 10SM BKN110 04/03 A2929 RMK SLP917 T00440028 TSNO VIA AUTODIAL
PAGY 201832Z AUTO 00000KT 10SM FEW012 BKN110 04/03 A2928 RMK AO2 T00440028 TSNO
PAGY 201809Z AUTO 00000KT 10SM BKN011 OVC100 04/03 A2927 RMK AO2 T00390028 TSNO
PAGY 201753Z AUTO 00000KT 10SM OVC009 04/03 A2926 RMK AO2 RAB05E15 CIG 005V011 SLP910 P0000 60003 T00390028 10039 20033 53016 TSNO
PAGY 201712Z AUTO 00000KT 10SM -RA OVC014 04/03 A2925 RMK AO2 RAB05 P0000 T00390028 TSNO
PAGY 201653Z AUTO 00000KT 10SM OVC016 04/03 A2925 RMK AO2 RAE06 SLP903 P0000 T00390028 TSNO
PAGY 201553Z AUTO 00000KT 8SM -RA FEW013 OVC019 03/02 A2923 RMK AO2 RAB23 SLP898 P0001 T00330022 TSNO
PAGY 201453Z AUTO 00000KT 10SM OVC023 03/02 A2922 RMK AO2 RAE15 SLP894 P0000 60002 T00330022 53006 TSNO
PAGY 201353Z AUTO 00000KT 10SM -RA BKN015 OVC030 03/02 A2921 RMK AO2 SLP891 P0001 T00330022 TSNO
PAGY 201344Z AUTO 00000KT 10SM -RA FEW008 BKN016 OVC030 03/02 A2921 RMK AO2 P0001 T00330022 TSNO
PAGY 201302Z AUTO 00000KT 10SM -RA SCT020 OVC032 03/03 A2920 RMK AO2 P0000 T00330028 TSNO